sensor_id;sensor_type;location;lat;lon;timestamp;P1;durP1;ratioP1;P2;durP2;ratioP2
43823;SDS011;29470;53.550;9.926;2022-10-29T00:01:52;22.23;;;7.20;;
43823;SDS011;29470;53.550;9.926;2022-10-29T00:06:56;19.90;;;7.35;;
43823;SDS011;29470;53.550;9.926;2022-10-29T00:11:59;23.05;;;7.63;;
43823;SDS011;29470;53.550;9.926;2022-10-29T00:17:02;18.98;;;7.45;;
43823;SDS011;29470;53.550;9.926;2022-10-29T00:22:06;16.98;;;6.80;;
43823;SDS011;29470;53.550;9.926;2022-10-29T00:27:09;17.90;;;6.55;;
43823;SDS011;29470;53.550;9.926;2022-10-29T00:32:12;20.77;;;7.28;;
43823;SDS011;29470;53.550;9.926;2022-10-29T00:37:16;24.40;;;7.72;;
43823;SDS011;29470;53.550;9.926;2022-10-29T00:42:19;18.08;;;7.40;;
43823;SDS011;29470;53.550;9.926;2022-10-29T00:47:23;19.60;;;8.13;;
43823;SDS011;29470;53.550;9.926;2022-10-29T00:52:31;20.67;;;8.07;;
43823;SDS011;29470;53.550;9.926;2022-10-29T00:57:35;20.52;;;7.85;;
43823;SDS011;29470;53.550;9.926;2022-10-29T01:02:41;21.92;;;6.95;;
43823;SDS011;29470;53.550;9.926;2022-10-29T01:07:47;29.23;;;6.82;;
43823;SDS011;29470;53.550;9.926;2022-10-29T01:18:21;22.13;;;7.07;;
43823;SDS011;29470;53.550;9.926;2022-10-29T01:23:39;23.10;;;7.32;;
43823;SDS011;29470;53.550;9.926;2022-10-29T01:29:08;25.20;;;7.68;;
43823;SDS011;29470;53.550;9.926;2022-10-29T01:34:23;18.27;;;7.30;;
43823;SDS011;29470;53.550;9.926;2022-10-29T01:39:31;20.40;;;7.30;;
43823;SDS011;29470;53.550;9.926;2022-10-29T01:44:40;19.70;;;6.93;;
43823;SDS011;29470;53.550;9.926;2022-10-29T01:49:48;23.10;;;7.88;;
43823;SDS011;29470;53.550;9.926;2022-10-29T01:54:55;27.98;;;8.77;;
43823;SDS011;29470;53.550;9.926;2022-10-29T02:00:00;21.52;;;7.32;;
43823;SDS011;29470;53.550;9.926;2022-10-29T02:05:14;22.80;;;7.93;;
43823;SDS011;29470;53.550;9.926;2022-10-29T02:10:30;25.35;;;8.60;;
43823;SDS011;29470;53.550;9.926;2022-10-29T02:15:39;22.40;;;8.50;;
43823;SDS011;29470;53.550;9.926;2022-10-29T02:20:46;25.25;;;8.73;;
43823;SDS011;29470;53.550;9.926;2022-10-29T02:25:49;24.65;;;7.93;;
43823;SDS011;29470;53.550;9.926;2022-10-29T02:30:52;23.83;;;7.85;;
43823;SDS011;29470;53.550;9.926;2022-10-29T02:35:56;20.73;;;8.18;;
43823;SDS011;29470;53.550;9.926;2022-10-29T02:40:59;24.73;;;8.35;;
43823;SDS011;29470;53.550;9.926;2022-10-29T02:46:09;22.88;;;8.60;;
43823;SDS011;29470;53.550;9.926;2022-10-29T02:51:17;25.58;;;10.05;;
43823;SDS011;29470;53.550;9.926;2022-10-29T02:56:20;29.25;;;10.25;;
43823;SDS011;29470;53.550;9.926;2022-10-29T03:01:23;29.13;;;9.82;;
43823;SDS011;29470;53.550;9.926;2022-10-29T03:06:27;24.15;;;9.90;;
43823;SDS011;29470;53.550;9.926;2022-10-29T03:11:31;34.13;;;10.52;;
43823;SDS011;29470;53.550;9.926;2022-10-29T03:16:34;31.15;;;11.07;;
43823;SDS011;29470;53.550;9.926;2022-10-29T03:21:38;32.13;;;10.70;;
43823;SDS011;29470;53.550;9.926;2022-10-29T03:26:41;32.95;;;11.60;;
43823;SDS011;29470;53.550;9.926;2022-10-29T03:31:43;29.13;;;10.57;;
43823;SDS011;29470;53.550;9.926;2022-10-29T03:36:48;25.52;;;10.80;;
43823;SDS011;29470;53.550;9.926;2022-10-29T03:41:51;28.50;;;10.50;;
43823;SDS011;29470;53.550;9.926;2022-10-29T03:46:54;32.20;;;10.35;;
43823;SDS011;29470;53.550;9.926;2022-10-29T03:51:58;30.08;;;10.02;;
43823;SDS011;29470;53.550;9.926;2022-10-29T03:57:02;26.05;;;9.88;;
43823;SDS011;29470;53.550;9.926;2022-10-29T04:02:05;26.38;;;9.60;;
43823;SDS011;29470;53.550;9.926;2022-10-29T04:07:11;24.52;;;10.02;;
43823;SDS011;29470;53.550;9.926;2022-10-29T04:12:14;32.75;;;10.55;;
43823;SDS011;29470;53.550;9.926;2022-10-29T04:17:17;26.88;;;10.07;;
43823;SDS011;29470;53.550;9.926;2022-10-29T04:22:21;28.95;;;10.32;;
43823;SDS011;29470;53.550;9.926;2022-10-29T04:27:44;31.65;;;11.35;;
43823;SDS011;29470;53.550;9.926;2022-10-29T04:33:07;30.45;;;11.10;;
43823;SDS011;29470;53.550;9.926;2022-10-29T04:38:11;33.90;;;10.98;;
43823;SDS011;29470;53.550;9.926;2022-10-29T04:43:15;28.95;;;10.23;;
43823;SDS011;29470;53.550;9.926;2022-10-29T04:48:18;27.50;;;10.65;;
43823;SDS011;29470;53.550;9.926;2022-10-29T04:53:23;28.88;;;10.60;;
43823;SDS011;29470;53.550;9.926;2022-10-29T04:58:28;30.15;;;11.70;;
43823;SDS011;29470;53.550;9.926;2022-10-29T05:03:32;32.33;;;11.85;;
43823;SDS011;29470;53.550;9.926;2022-10-29T05:08:36;30.58;;;12.27;;
43823;SDS011;29470;53.550;9.926;2022-10-29T05:13:39;28.20;;;11.98;;
43823;SDS011;29470;53.550;9.926;2022-10-29T05:18:42;28.73;;;11.85;;
43823;SDS011;29470;53.550;9.926;2022-10-29T05:29:29;28.70;;;12.25;;
43823;SDS011;29470;53.550;9.926;2022-10-29T05:34:32;28.63;;;13.02;;
43823;SDS011;29470;53.550;9.926;2022-10-29T05:39:37;27.05;;;11.43;;
43823;SDS011;29470;53.550;9.926;2022-10-29T05:44:41;27.95;;;11.30;;
43823;SDS011;29470;53.550;9.926;2022-10-29T05:49:43;26.15;;;10.68;;
43823;SDS011;29470;53.550;9.926;2022-10-29T05:54:48;25.38;;;9.77;;
43823;SDS011;29470;53.550;9.926;2022-10-29T05:59:51;30.65;;;10.45;;
43823;SDS011;29470;53.550;9.926;2022-10-29T06:04:54;24.48;;;10.10;;
43823;SDS011;29470;53.550;9.926;2022-10-29T06:09:58;24.52;;;9.45;;
43823;SDS011;29470;53.550;9.926;2022-10-29T06:15:01;24.42;;;9.75;;
43823;SDS011;29470;53.550;9.926;2022-10-29T06:20:05;31.05;;;9.90;;
43823;SDS011;29470;53.550;9.926;2022-10-29T06:25:11;30.20;;;11.63;;
43823;SDS011;29470;53.550;9.926;2022-10-29T06:30:14;27.20;;;11.82;;
43823;SDS011;29470;53.550;9.926;2022-10-29T06:35:17;22.52;;;11.90;;
43823;SDS011;29470;53.550;9.926;2022-10-29T06:40:21;24.38;;;11.65;;
43823;SDS011;29470;53.550;9.926;2022-10-29T06:45:24;27.23;;;11.75;;
43823;SDS011;29470;53.550;9.926;2022-10-29T06:50:27;26.65;;;12.27;;
43823;SDS011;29470;53.550;9.926;2022-10-29T06:55:33;26.50;;;11.75;;
43823;SDS011;29470;53.550;9.926;2022-10-29T07:05:43;24.67;;;11.23;;
43823;SDS011;29470;53.550;9.926;2022-10-29T07:10:49;30.02;;;12.77;;
43823;SDS011;29470;53.550;9.926;2022-10-29T07:15:52;28.13;;;12.35;;
43823;SDS011;29470;53.550;9.926;2022-10-29T07:20:56;32.25;;;12.63;;
43823;SDS011;29470;53.550;9.926;2022-10-29T07:26:00;32.95;;;13.02;;
43823;SDS011;29470;53.550;9.926;2022-10-29T07:31:03;27.45;;;12.90;;
43823;SDS011;29470;53.550;9.926;2022-10-29T07:36:08;33.63;;;14.88;;
43823;SDS011;29470;53.550;9.926;2022-10-29T07:41:12;30.98;;;13.13;;
43823;SDS011;29470;53.550;9.926;2022-10-29T07:46:15;30.92;;;13.68;;
43823;SDS011;29470;53.550;9.926;2022-10-29T07:51:18;30.83;;;13.43;;
43823;SDS011;29470;53.550;9.926;2022-10-29T07:56:22;30.35;;;13.43;;
43823;SDS011;29470;53.550;9.926;2022-10-29T08:01:25;32.58;;;12.93;;
43823;SDS011;29470;53.550;9.926;2022-10-29T08:06:28;37.80;;;14.00;;
43823;SDS011;29470;53.550;9.926;2022-10-29T08:11:32;33.50;;;13.18;;
43823;SDS011;29470;53.550;9.926;2022-10-29T08:16:35;33.25;;;14.32;;
43823;SDS011;29470;53.550;9.926;2022-10-29T08:21:38;37.70;;;15.65;;
43823;SDS011;29470;53.550;9.926;2022-10-29T08:26:42;31.20;;;13.85;;
43823;SDS011;29470;53.550;9.926;2022-10-29T08:31:46;32.58;;;14.15;;
43823;SDS011;29470;53.550;9.926;2022-10-29T08:36:48;32.53;;;14.15;;
43823;SDS011;29470;53.550;9.926;2022-10-29T08:41:55;37.83;;;17.02;;
43823;SDS011;29470;53.550;9.926;2022-10-29T08:47:12;35.30;;;14.65;;
43823;SDS011;29470;53.550;9.926;2022-10-29T08:52:20;32.70;;;14.38;;
43823;SDS011;29470;53.550;9.926;2022-10-29T08:57:29;36.13;;;14.40;;
43823;SDS011;29470;53.550;9.926;2022-10-29T09:02:35;41.95;;;15.93;;
43823;SDS011;29470;53.550;9.926;2022-10-29T09:07:56;30.98;;;14.93;;
43823;SDS011;29470;53.550;9.926;2022-10-29T09:13:15;40.17;;;15.93;;
43823;SDS011;29470;53.550;9.926;2022-10-29T09:18:37;34.83;;;14.65;;
43823;SDS011;29470;53.550;9.926;2022-10-29T09:23:53;35.97;;;13.90;;
43823;SDS011;29470;53.550;9.926;2022-10-29T09:29:09;31.38;;;15.07;;
43823;SDS011;29470;53.550;9.926;2022-10-29T09:34:27;34.72;;;15.48;;
43823;SDS011;29470;53.550;9.926;2022-10-29T09:39:34;36.97;;;17.00;;
43823;SDS011;29470;53.550;9.926;2022-10-29T09:44:44;32.55;;;15.18;;
43823;SDS011;29470;53.550;9.926;2022-10-29T09:49:57;34.42;;;14.75;;
43823;SDS011;29470;53.550;9.926;2022-10-29T09:55:14;53.42;;;26.85;;
43823;SDS011;29470;53.550;9.926;2022-10-29T10:00:23;31.40;;;15.18;;
43823;SDS011;29470;53.550;9.926;2022-10-29T10:05:28;29.42;;;14.00;;
43823;SDS011;29470;53.550;9.926;2022-10-29T10:10:33;32.05;;;13.75;;
43823;SDS011;29470;53.550;9.926;2022-10-29T10:15:38;26.77;;;14.10;;
43823;SDS011;29470;53.550;9.926;2022-10-29T10:20:59;31.92;;;12.98;;
43823;SDS011;29470;53.550;9.926;2022-10-29T10:26:04;28.48;;;12.93;;
43823;SDS011;29470;53.550;9.926;2022-10-29T10:31:12;30.67;;;12.75;;
43823;SDS011;29470;53.550;9.926;2022-10-29T10:36:16;28.42;;;13.43;;
43823;SDS011;29470;53.550;9.926;2022-10-29T10:41:22;33.50;;;14.07;;
43823;SDS011;29470;53.550;9.926;2022-10-29T10:46:30;29.80;;;13.48;;
43823;SDS011;29470;53.550;9.926;2022-10-29T10:51:36;24.58;;;12.10;;
43823;SDS011;29470;53.550;9.926;2022-10-29T10:56:50;24.83;;;11.68;;
43823;SDS011;29470;53.550;9.926;2022-10-29T11:01:55;27.60;;;12.27;;
43823;SDS011;29470;53.550;9.926;2022-10-29T11:07:01;30.98;;;12.98;;
43823;SDS011;29470;53.550;9.926;2022-10-29T11:12:10;28.27;;;12.73;;
43823;SDS011;29470;53.550;9.926;2022-10-29T11:17:22;28.27;;;12.25;;
43823;SDS011;29470;53.550;9.926;2022-10-29T11:22:28;24.48;;;12.18;;
43823;SDS011;29470;53.550;9.926;2022-10-29T11:27:36;24.27;;;10.63;;
43823;SDS011;29470;53.550;9.926;2022-10-29T11:32:55;25.40;;;10.98;;
43823;SDS011;29470;53.550;9.926;2022-10-29T11:38:05;28.33;;;11.30;;
43823;SDS011;29470;53.550;9.926;2022-10-29T11:43:16;24.10;;;11.45;;
43823;SDS011;29470;53.550;9.926;2022-10-29T11:48:24;23.83;;;10.75;;
43823;SDS011;29470;53.550;9.926;2022-10-29T11:53:47;22.58;;;10.23;;
43823;SDS011;29470;53.550;9.926;2022-10-29T11:58:59;23.67;;;10.02;;
43823;SDS011;29470;53.550;9.926;2022-10-29T12:04:16;26.52;;;9.85;;
43823;SDS011;29470;53.550;9.926;2022-10-29T12:15:03;22.08;;;9.15;;
43823;SDS011;29470;53.550;9.926;2022-10-29T12:20:16;19.25;;;8.75;;
43823;SDS011;29470;53.550;9.926;2022-10-29T12:25:30;26.67;;;9.48;;
43823;SDS011;29470;53.550;9.926;2022-10-29T12:30:42;20.92;;;8.40;;
43823;SDS011;29470;53.550;9.926;2022-10-29T12:35:56;20.08;;;8.68;;
43823;SDS011;29470;53.550;9.926;2022-10-29T12:41:06;18.98;;;8.10;;
43823;SDS011;29470;53.550;9.926;2022-10-29T12:46:18;17.33;;;7.03;;
43823;SDS011;29470;53.550;9.926;2022-10-29T12:51:32;16.80;;;6.32;;
43823;SDS011;29470;53.550;9.926;2022-10-29T12:56:41;18.63;;;7.63;;
43823;SDS011;29470;53.550;9.926;2022-10-29T13:01:50;23.00;;;8.85;;
43823;SDS011;29470;53.550;9.926;2022-10-29T13:07:24;15.82;;;6.97;;
43823;SDS011;29470;53.550;9.926;2022-10-29T13:18:03;18.55;;;6.85;;
43823;SDS011;29470;53.550;9.926;2022-10-29T13:28:46;13.52;;;6.32;;
43823;SDS011;29470;53.550;9.926;2022-10-29T13:33:51;15.60;;;6.88;;
43823;SDS011;29470;53.550;9.926;2022-10-29T13:39:00;16.08;;;7.40;;
43823;SDS011;29470;53.550;9.926;2022-10-29T13:44:09;18.17;;;7.75;;
43823;SDS011;29470;53.550;9.926;2022-10-29T13:49:17;15.98;;;6.55;;
43823;SDS011;29470;53.550;9.926;2022-10-29T13:54:29;20.77;;;7.82;;
43823;SDS011;29470;53.550;9.926;2022-10-29T13:59:39;16.95;;;7.93;;
43823;SDS011;29470;53.550;9.926;2022-10-29T14:04:45;16.30;;;7.38;;
43823;SDS011;29470;53.550;9.926;2022-10-29T14:09:52;14.88;;;6.65;;
43823;SDS011;29470;53.550;9.926;2022-10-29T14:15:00;20.80;;;8.47;;
43823;SDS011;29470;53.550;9.926;2022-10-29T14:20:19;19.35;;;7.00;;
43823;SDS011;29470;53.550;9.926;2022-10-29T14:25:34;16.83;;;8.90;;
43823;SDS011;29470;53.550;9.926;2022-10-29T14:30:38;21.83;;;7.15;;
43823;SDS011;29470;53.550;9.926;2022-10-29T14:35:40;15.35;;;6.78;;
43823;SDS011;29470;53.550;9.926;2022-10-29T14:40:45;16.58;;;6.95;;
43823;SDS011;29470;53.550;9.926;2022-10-29T14:45:49;20.77;;;7.10;;
43823;SDS011;29470;53.550;9.926;2022-10-29T14:50:53;18.77;;;7.65;;
43823;SDS011;29470;53.550;9.926;2022-10-29T14:55:58;18.38;;;8.70;;
43823;SDS011;29470;53.550;9.926;2022-10-29T15:01:06;17.60;;;7.93;;
43823;SDS011;29470;53.550;9.926;2022-10-29T15:06:17;20.58;;;8.15;;
43823;SDS011;29470;53.550;9.926;2022-10-29T15:11:32;21.58;;;9.05;;
43823;SDS011;29470;53.550;9.926;2022-10-29T15:16:37;23.83;;;9.18;;
43823;SDS011;29470;53.550;9.926;2022-10-29T15:21:42;18.60;;;8.02;;
43823;SDS011;29470;53.550;9.926;2022-10-29T15:26:48;18.90;;;8.55;;
43823;SDS011;29470;53.550;9.926;2022-10-29T15:31:53;20.20;;;9.88;;
43823;SDS011;29470;53.550;9.926;2022-10-29T15:37:12;22.33;;;9.18;;
43823;SDS011;29470;53.550;9.926;2022-10-29T15:42:19;19.27;;;8.02;;
43823;SDS011;29470;53.550;9.926;2022-10-29T15:47:25;22.73;;;9.23;;
43823;SDS011;29470;53.550;9.926;2022-10-29T15:52:30;20.83;;;10.02;;
43823;SDS011;29470;53.550;9.926;2022-10-29T15:57:35;22.15;;;8.70;;
43823;SDS011;29470;53.550;9.926;2022-10-29T16:02:38;21.05;;;9.82;;
43823;SDS011;29470;53.550;9.926;2022-10-29T16:07:41;28.70;;;12.75;;
43823;SDS011;29470;53.550;9.926;2022-10-29T16:12:47;22.73;;;11.23;;
43823;SDS011;29470;53.550;9.926;2022-10-29T16:17:51;28.85;;;12.45;;
43823;SDS011;29470;53.550;9.926;2022-10-29T16:22:54;29.17;;;12.95;;
43823;SDS011;29470;53.550;9.926;2022-10-29T16:27:59;23.75;;;11.88;;
43823;SDS011;29470;53.550;9.926;2022-10-29T16:33:01;26.33;;;11.13;;
43823;SDS011;29470;53.550;9.926;2022-10-29T16:38:05;26.73;;;12.45;;
43823;SDS011;29470;53.550;9.926;2022-10-29T16:43:09;27.58;;;11.77;;
43823;SDS011;29470;53.550;9.926;2022-10-29T16:48:12;26.48;;;12.25;;
43823;SDS011;29470;53.550;9.926;2022-10-29T16:53:15;24.50;;;11.90;;
43823;SDS011;29470;53.550;9.926;2022-10-29T16:58:19;28.33;;;12.07;;
43823;SDS011;29470;53.550;9.926;2022-10-29T17:03:22;33.72;;;13.88;;
43823;SDS011;29470;53.550;9.926;2022-10-29T17:08:28;27.33;;;13.50;;
43823;SDS011;29470;53.550;9.926;2022-10-29T17:13:33;30.23;;;13.85;;
43823;SDS011;29470;53.550;9.926;2022-10-29T17:18:37;26.73;;;13.57;;
43823;SDS011;29470;53.550;9.926;2022-10-29T17:23:39;33.20;;;15.07;;
43823;SDS011;29470;53.550;9.926;2022-10-29T17:28:44;33.20;;;17.50;;
43823;SDS011;29470;53.550;9.926;2022-10-29T17:33:50;24.75;;;12.30;;
43823;SDS011;29470;53.550;9.926;2022-10-29T17:38:53;28.42;;;13.40;;
43823;SDS011;29470;53.550;9.926;2022-10-29T17:43:57;25.05;;;12.63;;
43823;SDS011;29470;53.550;9.926;2022-10-29T17:49:00;31.05;;;13.70;;
43823;SDS011;29470;53.550;9.926;2022-10-29T17:54:03;28.42;;;13.90;;
43823;SDS011;29470;53.550;9.926;2022-10-29T17:59:07;32.58;;;18.50;;
43823;SDS011;29470;53.550;9.926;2022-10-29T18:04:10;27.02;;;14.98;;
43823;SDS011;29470;53.550;9.926;2022-10-29T18:09:18;37.88;;;16.13;;
43823;SDS011;29470;53.550;9.926;2022-10-29T18:20:08;30.42;;;14.98;;
43823;SDS011;29470;53.550;9.926;2022-10-29T18:25:12;31.90;;;13.85;;
43823;SDS011;29470;53.550;9.926;2022-10-29T18:30:16;28.60;;;14.77;;
43823;SDS011;29470;53.550;9.926;2022-10-29T18:35:24;36.20;;;18.30;;
43823;SDS011;29470;53.550;9.926;2022-10-29T18:40:28;34.28;;;16.25;;
43823;SDS011;29470;53.550;9.926;2022-10-29T18:45:31;29.38;;;14.50;;
43823;SDS011;29470;53.550;9.926;2022-10-29T18:50:35;33.25;;;15.48;;
43823;SDS011;29470;53.550;9.926;2022-10-29T18:55:46;37.90;;;15.80;;
43823;SDS011;29470;53.550;9.926;2022-10-29T19:00:53;31.35;;;15.40;;
43823;SDS011;29470;53.550;9.926;2022-10-29T19:05:59;34.00;;;14.85;;
43823;SDS011;29470;53.550;9.926;2022-10-29T19:11:03;36.75;;;17.88;;
43823;SDS011;29470;53.550;9.926;2022-10-29T19:16:13;33.83;;;17.10;;
43823;SDS011;29470;53.550;9.926;2022-10-29T19:21:18;31.55;;;16.23;;
43823;SDS011;29470;53.550;9.926;2022-10-29T19:26:26;44.45;;;21.75;;
43823;SDS011;29470;53.550;9.926;2022-10-29T19:31:34;37.90;;;17.88;;
43823;SDS011;29470;53.550;9.926;2022-10-29T19:36:39;33.85;;;17.83;;
43823;SDS011;29470;53.550;9.926;2022-10-29T19:41:44;34.90;;;16.30;;
43823;SDS011;29470;53.550;9.926;2022-10-29T19:46:48;33.00;;;17.05;;
43823;SDS011;29470;53.550;9.926;2022-10-29T19:52:11;35.80;;;17.25;;
43823;SDS011;29470;53.550;9.926;2022-10-29T19:57:17;31.20;;;17.30;;
43823;SDS011;29470;53.550;9.926;2022-10-29T20:08:31;37.33;;;17.23;;
43823;SDS011;29470;53.550;9.926;2022-10-29T20:13:37;36.10;;;18.45;;
43823;SDS011;29470;53.550;9.926;2022-10-29T20:18:41;33.95;;;17.92;;
43823;SDS011;29470;53.550;9.926;2022-10-29T20:23:46;29.60;;;17.52;;
43823;SDS011;29470;53.550;9.926;2022-10-29T20:28:50;30.90;;;17.75;;
43823;SDS011;29470;53.550;9.926;2022-10-29T20:33:54;32.13;;;16.98;;
43823;SDS011;29470;53.550;9.926;2022-10-29T20:38:59;34.03;;;18.20;;
43823;SDS011;29470;53.550;9.926;2022-10-29T20:44:02;37.72;;;16.70;;
43823;SDS011;29470;53.550;9.926;2022-10-29T20:49:05;29.02;;;17.42;;
43823;SDS011;29470;53.550;9.926;2022-10-29T20:54:09;30.15;;;17.77;;
43823;SDS011;29470;53.550;9.926;2022-10-29T20:59:12;33.83;;;18.40;;
43823;SDS011;29470;53.550;9.926;2022-10-29T21:04:15;33.72;;;17.67;;
43823;SDS011;29470;53.550;9.926;2022-10-29T21:09:20;36.92;;;18.48;;
43823;SDS011;29470;53.550;9.926;2022-10-29T21:14:23;36.00;;;19.48;;
43823;SDS011;29470;53.550;9.926;2022-10-29T21:19:27;33.40;;;18.52;;
43823;SDS011;29470;53.550;9.926;2022-10-29T21:24:32;34.60;;;18.40;;
43823;SDS011;29470;53.550;9.926;2022-10-29T21:29:36;35.85;;;20.40;;
43823;SDS011;29470;53.550;9.926;2022-10-29T21:34:39;36.15;;;20.13;;
43823;SDS011;29470;53.550;9.926;2022-10-29T21:39:43;40.10;;;19.75;;
43823;SDS011;29470;53.550;9.926;2022-10-29T21:44:46;38.30;;;19.80;;
43823;SDS011;29470;53.550;9.926;2022-10-29T21:49:49;39.03;;;19.85;;
43823;SDS011;29470;53.550;9.926;2022-10-29T21:54:53;38.97;;;20.15;;
43823;SDS011;29470;53.550;9.926;2022-10-29T21:59:56;38.00;;;19.65;;
43823;SDS011;29470;53.550;9.926;2022-10-29T22:04:59;42.08;;;18.48;;
43823;SDS011;29470;53.550;9.926;2022-10-29T22:10:04;38.35;;;20.20;;
43823;SDS011;29470;53.550;9.926;2022-10-29T22:15:07;37.70;;;19.73;;
43823;SDS011;29470;53.550;9.926;2022-10-29T22:20:11;39.20;;;20.67;;
43823;SDS011;29470;53.550;9.926;2022-10-29T22:25:17;38.90;;;20.20;;
43823;SDS011;29470;53.550;9.926;2022-10-29T22:30:21;43.53;;;20.73;;
43823;SDS011;29470;53.550;9.926;2022-10-29T22:35:24;36.38;;;19.90;;
43823;SDS011;29470;53.550;9.926;2022-10-29T22:40:28;37.35;;;20.00;;
43823;SDS011;29470;53.550;9.926;2022-10-29T22:45:31;39.70;;;20.63;;
43823;SDS011;29470;53.550;9.926;2022-10-29T22:50:34;34.33;;;18.58;;
43823;SDS011;29470;53.550;9.926;2022-10-29T22:55:38;43.72;;;21.27;;
43823;SDS011;29470;53.550;9.926;2022-10-29T23:00:41;35.95;;;19.15;;
43823;SDS011;29470;53.550;9.926;2022-10-29T23:05:44;35.35;;;19.50;;
43823;SDS011;29470;53.550;9.926;2022-10-29T23:11:01;34.55;;;19.08;;
43823;SDS011;29470;53.550;9.926;2022-10-29T23:16:06;37.58;;;19.17;;
43823;SDS011;29470;53.550;9.926;2022-10-29T23:21:09;39.22;;;20.23;;
43823;SDS011;29470;53.550;9.926;2022-10-29T23:26:13;34.88;;;18.27;;
43823;SDS011;29470;53.550;9.926;2022-10-29T23:31:16;37.05;;;19.98;;
43823;SDS011;29470;53.550;9.926;2022-10-29T23:36:21;35.47;;;19.27;;
43823;SDS011;29470;53.550;9.926;2022-10-29T23:41:27;37.17;;;18.38;;
43823;SDS011;29470;53.550;9.926;2022-10-29T23:46:30;33.40;;;19.08;;
43823;SDS011;29470;53.550;9.926;2022-10-29T23:51:33;35.42;;;18.60;;
43823;SDS011;29470;53.550;9.926;2022-10-29T23:56:37;33.20;;;18.02;;
